sensor_id;sensor_type;location;lat;lon;timestamp;P1;durP1;ratioP1;P2;durP2;ratioP2
19004;SDS011;9635;52.078;8.648;2023-06-22T00:03:50;8.75;;;7.85;;
19004;SDS011;9635;52.078;8.648;2023-06-22T00:08:53;12.73;;;7.35;;
19004;SDS011;9635;52.078;8.648;2023-06-22T00:13:56;11.45;;;7.68;;
19004;SDS011;9635;52.078;8.648;2023-06-22T00:19:01;8.77;;;7.80;;
19004;SDS011;9635;52.078;8.648;2023-06-22T00:24:05;10.05;;;8.15;;
19004;SDS011;9635;52.078;8.648;2023-06-22T00:29:08;9.20;;;7.75;;
19004;SDS011;9635;52.078;8.648;2023-06-22T00:34:12;10.65;;;8.52;;
19004;SDS011;9635;52.078;8.648;2023-06-22T00:39:15;8.82;;;7.93;;
19004;SDS011;9635;52.078;8.648;2023-06-22T00:44:19;10.38;;;8.60;;
19004;SDS011;9635;52.078;8.648;2023-06-22T00:49:23;12.68;;;9.77;;
19004;SDS011;9635;52.078;8.648;2023-06-22T00:54:26;13.07;;;10.15;;
19004;SDS011;9635;52.078;8.648;2023-06-22T00:59:30;11.23;;;9.48;;
19004;SDS011;9635;52.078;8.648;2023-06-22T01:04:36;13.75;;;11.02;;
19004;SDS011;9635;52.078;8.648;2023-06-22T01:09:42;13.95;;;11.00;;
19004;SDS011;9635;52.078;8.648;2023-06-22T01:14:54;15.65;;;13.45;;
19004;SDS011;9635;52.078;8.648;2023-06-22T01:20:02;16.65;;;11.63;;
19004;SDS011;9635;52.078;8.648;2023-06-22T01:25:11;17.38;;;11.07;;
19004;SDS011;9635;52.078;8.648;2023-06-22T01:30:21;15.55;;;11.10;;
19004;SDS011;9635;52.078;8.648;2023-06-22T01:35:26;15.63;;;11.23;;
19004;SDS011;9635;52.078;8.648;2023-06-22T01:40:29;13.93;;;11.85;;
19004;SDS011;9635;52.078;8.648;2023-06-22T01:45:36;13.35;;;11.95;;
19004;SDS011;9635;52.078;8.648;2023-06-22T01:50:39;13.02;;;11.15;;
19004;SDS011;9635;52.078;8.648;2023-06-22T01:55:45;13.88;;;12.05;;
19004;SDS011;9635;52.078;8.648;2023-06-22T02:00:50;16.08;;;11.75;;
19004;SDS011;9635;52.078;8.648;2023-06-22T02:06:01;16.40;;;12.73;;
19004;SDS011;9635;52.078;8.648;2023-06-22T02:11:07;17.13;;;13.00;;
19004;SDS011;9635;52.078;8.648;2023-06-22T02:16:13;15.30;;;12.55;;
19004;SDS011;9635;52.078;8.648;2023-06-22T02:21:17;19.27;;;11.88;;
19004;SDS011;9635;52.078;8.648;2023-06-22T02:26:20;14.70;;;12.40;;
19004;SDS011;9635;52.078;8.648;2023-06-22T02:31:25;12.98;;;11.55;;
19004;SDS011;9635;52.078;8.648;2023-06-22T02:36:32;16.67;;;13.88;;
19004;SDS011;9635;52.078;8.648;2023-06-22T02:41:35;18.50;;;15.23;;
19004;SDS011;9635;52.078;8.648;2023-06-22T02:46:39;22.13;;;13.70;;
19004;SDS011;9635;52.078;8.648;2023-06-22T02:51:44;17.08;;;12.80;;
19004;SDS011;9635;52.078;8.648;2023-06-22T02:56:51;15.25;;;13.63;;
19004;SDS011;9635;52.078;8.648;2023-06-22T03:01:57;19.23;;;15.15;;
19004;SDS011;9635;52.078;8.648;2023-06-22T03:07:04;17.88;;;13.88;;
19004;SDS011;9635;52.078;8.648;2023-06-22T03:12:08;16.73;;;14.13;;
19004;SDS011;9635;52.078;8.648;2023-06-22T03:17:21;17.70;;;15.77;;
19004;SDS011;9635;52.078;8.648;2023-06-22T03:22:24;16.77;;;14.52;;
19004;SDS011;9635;52.078;8.648;2023-06-22T03:27:27;20.92;;;14.18;;
19004;SDS011;9635;52.078;8.648;2023-06-22T03:32:31;17.45;;;14.48;;
19004;SDS011;9635;52.078;8.648;2023-06-22T03:37:34;20.58;;;15.85;;
19004;SDS011;9635;52.078;8.648;2023-06-22T03:42:37;19.00;;;15.02;;
19004;SDS011;9635;52.078;8.648;2023-06-22T03:47:42;24.38;;;17.65;;
19004;SDS011;9635;52.078;8.648;2023-06-22T03:52:44;21.20;;;17.63;;
19004;SDS011;9635;52.078;8.648;2023-06-22T03:57:47;20.45;;;15.85;;
19004;SDS011;9635;52.078;8.648;2023-06-22T04:02:51;18.73;;;15.20;;
19004;SDS011;9635;52.078;8.648;2023-06-22T04:07:54;12.07;;;10.10;;
19004;SDS011;9635;52.078;8.648;2023-06-22T04:12:57;10.52;;;8.52;;
19004;SDS011;9635;52.078;8.648;2023-06-22T04:18:02;15.13;;;12.50;;
19004;SDS011;9635;52.078;8.648;2023-06-22T04:23:05;17.83;;;15.45;;
19004;SDS011;9635;52.078;8.648;2023-06-22T04:28:08;15.82;;;13.38;;
19004;SDS011;9635;52.078;8.648;2023-06-22T04:33:15;20.17;;;12.38;;
19004;SDS011;9635;52.078;8.648;2023-06-22T04:38:18;14.93;;;13.35;;
19004;SDS011;9635;52.078;8.648;2023-06-22T04:43:23;18.70;;;14.32;;
19004;SDS011;9635;52.078;8.648;2023-06-22T04:48:27;18.70;;;14.57;;
19004;SDS011;9635;52.078;8.648;2023-06-22T04:53:33;19.27;;;13.93;;
19004;SDS011;9635;52.078;8.648;2023-06-22T04:58:36;18.52;;;13.50;;
19004;SDS011;9635;52.078;8.648;2023-06-22T05:03:40;18.25;;;15.45;;
19004;SDS011;9635;52.078;8.648;2023-06-22T05:08:43;20.40;;;16.80;;
19004;SDS011;9635;52.078;8.648;2023-06-22T05:13:46;26.90;;;16.13;;
19004;SDS011;9635;52.078;8.648;2023-06-22T05:18:51;18.65;;;14.18;;
19004;SDS011;9635;52.078;8.648;2023-06-22T05:23:55;22.48;;;16.98;;
19004;SDS011;9635;52.078;8.648;2023-06-22T05:29:02;19.15;;;13.70;;
19004;SDS011;9635;52.078;8.648;2023-06-22T05:34:07;17.30;;;14.60;;
19004;SDS011;9635;52.078;8.648;2023-06-22T05:39:12;19.60;;;17.45;;
19004;SDS011;9635;52.078;8.648;2023-06-22T05:44:16;15.57;;;13.80;;
19004;SDS011;9635;52.078;8.648;2023-06-22T05:49:20;18.17;;;14.90;;
19004;SDS011;9635;52.078;8.648;2023-06-22T05:54:23;21.60;;;18.63;;
19004;SDS011;9635;52.078;8.648;2023-06-22T05:59:26;20.63;;;15.45;;
19004;SDS011;9635;52.078;8.648;2023-06-22T06:04:30;20.40;;;17.45;;
19004;SDS011;9635;52.078;8.648;2023-06-22T06:09:33;22.88;;;18.85;;
19004;SDS011;9635;52.078;8.648;2023-06-22T06:14:36;19.42;;;16.85;;
19004;SDS011;9635;52.078;8.648;2023-06-22T06:19:40;16.92;;;12.45;;
19004;SDS011;9635;52.078;8.648;2023-06-22T06:24:43;18.65;;;13.55;;
19004;SDS011;9635;52.078;8.648;2023-06-22T06:29:46;22.15;;;19.77;;
19004;SDS011;9635;52.078;8.648;2023-06-22T06:34:51;21.73;;;19.35;;
19004;SDS011;9635;52.078;8.648;2023-06-22T06:39:54;21.63;;;18.60;;
19004;SDS011;9635;52.078;8.648;2023-06-22T06:44:56;20.35;;;17.92;;
19004;SDS011;9635;52.078;8.648;2023-06-22T06:50:01;19.58;;;17.05;;
19004;SDS011;9635;52.078;8.648;2023-06-22T06:55:04;23.40;;;17.58;;
19004;SDS011;9635;52.078;8.648;2023-06-22T07:00:11;21.00;;;16.55;;
19004;SDS011;9635;52.078;8.648;2023-06-22T07:05:27;21.55;;;16.65;;
19004;SDS011;9635;52.078;8.648;2023-06-22T07:10:30;21.38;;;17.05;;
19004;SDS011;9635;52.078;8.648;2023-06-22T07:15:33;20.40;;;17.00;;
19004;SDS011;9635;52.078;8.648;2023-06-22T07:20:40;19.90;;;16.55;;
19004;SDS011;9635;52.078;8.648;2023-06-22T07:25:43;20.58;;;16.58;;
19004;SDS011;9635;52.078;8.648;2023-06-22T07:30:46;20.90;;;17.23;;
19004;SDS011;9635;52.078;8.648;2023-06-22T07:35:50;18.90;;;16.90;;
19004;SDS011;9635;52.078;8.648;2023-06-22T07:40:53;18.92;;;15.93;;
19004;SDS011;9635;52.078;8.648;2023-06-22T07:45:56;18.48;;;16.45;;
19004;SDS011;9635;52.078;8.648;2023-06-22T07:51:01;21.13;;;16.65;;
19004;SDS011;9635;52.078;8.648;2023-06-22T07:56:04;18.25;;;15.68;;
19004;SDS011;9635;52.078;8.648;2023-06-22T08:01:08;20.02;;;17.17;;
19004;SDS011;9635;52.078;8.648;2023-06-22T08:06:13;20.33;;;16.20;;
19004;SDS011;9635;52.078;8.648;2023-06-22T08:11:16;18.77;;;16.75;;
19004;SDS011;9635;52.078;8.648;2023-06-22T08:16:19;23.65;;;16.00;;
19004;SDS011;9635;52.078;8.648;2023-06-22T08:21:23;18.02;;;16.17;;
19004;SDS011;9635;52.078;8.648;2023-06-22T08:26:26;19.83;;;16.70;;
19004;SDS011;9635;52.078;8.648;2023-06-22T08:31:29;18.73;;;16.50;;
19004;SDS011;9635;52.078;8.648;2023-06-22T08:36:33;22.98;;;17.63;;
19004;SDS011;9635;52.078;8.648;2023-06-22T08:41:38;21.40;;;17.35;;
19004;SDS011;9635;52.078;8.648;2023-06-22T08:46:41;19.55;;;16.52;;
19004;SDS011;9635;52.078;8.648;2023-06-22T08:51:45;20.58;;;17.65;;
19004;SDS011;9635;52.078;8.648;2023-06-22T08:56:50;18.08;;;15.18;;
19004;SDS011;9635;52.078;8.648;2023-06-22T09:01:53;18.70;;;15.50;;
19004;SDS011;9635;52.078;8.648;2023-06-22T09:07:00;17.63;;;14.25;;
19004;SDS011;9635;52.078;8.648;2023-06-22T09:12:03;15.18;;;13.68;;
19004;SDS011;9635;52.078;8.648;2023-06-22T09:17:07;15.40;;;13.90;;
19004;SDS011;9635;52.078;8.648;2023-06-22T09:22:11;16.17;;;13.23;;
19004;SDS011;9635;52.078;8.648;2023-06-22T09:27:14;14.65;;;13.07;;
19004;SDS011;9635;52.078;8.648;2023-06-22T09:32:17;19.95;;;15.13;;
19004;SDS011;9635;52.078;8.648;2023-06-22T09:37:21;15.20;;;13.60;;
19004;SDS011;9635;52.078;8.648;2023-06-22T09:42:24;13.85;;;12.48;;
19004;SDS011;9635;52.078;8.648;2023-06-22T09:47:27;12.00;;;10.77;;
19004;SDS011;9635;52.078;8.648;2023-06-22T09:52:33;12.80;;;11.50;;
19004;SDS011;9635;52.078;8.648;2023-06-22T09:57:48;14.43;;;11.23;;
19004;SDS011;9635;52.078;8.648;2023-06-22T10:02:51;13.25;;;12.05;;
19004;SDS011;9635;52.078;8.648;2023-06-22T10:07:56;14.88;;;13.30;;
19004;SDS011;9635;52.078;8.648;2023-06-22T10:13:07;13.40;;;12.18;;
19004;SDS011;9635;52.078;8.648;2023-06-22T10:18:11;15.68;;;12.30;;
19004;SDS011;9635;52.078;8.648;2023-06-22T10:23:15;17.75;;;14.40;;
19004;SDS011;9635;52.078;8.648;2023-06-22T10:28:18;18.13;;;15.05;;
19004;SDS011;9635;52.078;8.648;2023-06-22T10:33:21;13.75;;;12.45;;
19004;SDS011;9635;52.078;8.648;2023-06-22T10:38:25;13.35;;;12.10;;
19004;SDS011;9635;52.078;8.648;2023-06-22T10:43:28;13.18;;;11.90;;
19004;SDS011;9635;52.078;8.648;2023-06-22T10:48:31;14.35;;;12.85;;
19004;SDS011;9635;52.078;8.648;2023-06-22T10:53:35;12.27;;;11.02;;
19004;SDS011;9635;52.078;8.648;2023-06-22T10:58:38;12.52;;;10.68;;
19004;SDS011;9635;52.078;8.648;2023-06-22T11:03:41;11.38;;;10.32;;
19004;SDS011;9635;52.078;8.648;2023-06-22T11:08:45;10.68;;;9.68;;
19004;SDS011;9635;52.078;8.648;2023-06-22T11:14:07;11.35;;;10.20;;
19004;SDS011;9635;52.078;8.648;2023-06-22T11:19:09;11.02;;;10.02;;
19004;SDS011;9635;52.078;8.648;2023-06-22T11:24:14;12.25;;;11.05;;
19004;SDS011;9635;52.078;8.648;2023-06-22T11:29:17;11.38;;;10.20;;
19004;SDS011;9635;52.078;8.648;2023-06-22T11:34:37;11.10;;;10.20;;
19004;SDS011;9635;52.078;8.648;2023-06-22T11:39:42;11.02;;;10.02;;
19004;SDS011;9635;52.078;8.648;2023-06-22T11:44:54;9.88;;;9.07;;
19004;SDS011;9635;52.078;8.648;2023-06-22T11:49:59;11.27;;;9.65;;
19004;SDS011;9635;52.078;8.648;2023-06-22T11:55:03;10.25;;;9.35;;
19004;SDS011;9635;52.078;8.648;2023-06-22T12:00:08;9.60;;;8.70;;
19004;SDS011;9635;52.078;8.648;2023-06-22T12:05:19;12.43;;;9.70;;
19004;SDS011;9635;52.078;8.648;2023-06-22T12:10:24;11.18;;;9.85;;
19004;SDS011;9635;52.078;8.648;2023-06-22T12:15:30;32.50;;;11.50;;
19004;SDS011;9635;52.078;8.648;2023-06-22T12:20:33;11.63;;;10.63;;
19004;SDS011;9635;52.078;8.648;2023-06-22T12:25:37;11.75;;;10.45;;
19004;SDS011;9635;52.078;8.648;2023-06-22T12:30:40;12.68;;;11.38;;
19004;SDS011;9635;52.078;8.648;2023-06-22T12:35:43;14.07;;;10.93;;
19004;SDS011;9635;52.078;8.648;2023-06-22T12:40:48;12.50;;;11.20;;
19004;SDS011;9635;52.078;8.648;2023-06-22T12:45:51;14.02;;;11.48;;
19004;SDS011;9635;52.078;8.648;2023-06-22T12:50:55;15.63;;;12.45;;
19004;SDS011;9635;52.078;8.648;2023-06-22T12:55:59;14.10;;;12.60;;
19004;SDS011;9635;52.078;8.648;2023-06-22T13:01:02;15.90;;;13.80;;
19004;SDS011;9635;52.078;8.648;2023-06-22T13:06:05;14.50;;;13.02;;
19004;SDS011;9635;52.078;8.648;2023-06-22T13:11:09;18.52;;;13.20;;
19004;SDS011;9635;52.078;8.648;2023-06-22T13:16:12;14.23;;;12.82;;
19004;SDS011;9635;52.078;8.648;2023-06-22T13:21:15;15.93;;;14.32;;
19004;SDS011;9635;52.078;8.648;2023-06-22T13:26:20;18.15;;;16.35;;
19004;SDS011;9635;52.078;8.648;2023-06-22T13:31:23;19.38;;;17.15;;
19004;SDS011;9635;52.078;8.648;2023-06-22T13:36:26;22.48;;;18.25;;
19004;SDS011;9635;52.078;8.648;2023-06-22T13:41:33;19.80;;;17.52;;
19004;SDS011;9635;52.078;8.648;2023-06-22T13:46:36;24.65;;;21.83;;
19004;SDS011;9635;52.078;8.648;2023-06-22T13:51:39;26.75;;;23.55;;
19004;SDS011;9635;52.078;8.648;2023-06-22T13:56:43;33.13;;;28.40;;
19004;SDS011;9635;52.078;8.648;2023-06-22T14:01:46;34.63;;;26.27;;
19004;SDS011;9635;52.078;8.648;2023-06-22T14:06:49;33.83;;;27.08;;
19004;SDS011;9635;52.078;8.648;2023-06-22T14:11:56;44.72;;;32.72;;
19004;SDS011;9635;52.078;8.648;2023-06-22T14:16:59;41.50;;;34.45;;
19004;SDS011;9635;52.078;8.648;2023-06-22T14:22:02;41.88;;;33.13;;
19004;SDS011;9635;52.078;8.648;2023-06-22T14:27:07;39.70;;;31.63;;
19004;SDS011;9635;52.078;8.648;2023-06-22T14:32:10;42.33;;;33.45;;
19004;SDS011;9635;52.078;8.648;2023-06-22T14:37:13;41.55;;;34.17;;
19004;SDS011;9635;52.078;8.648;2023-06-22T14:42:17;31.95;;;26.08;;
19004;SDS011;9635;52.078;8.648;2023-06-22T14:47:20;32.65;;;27.48;;
19004;SDS011;9635;52.078;8.648;2023-06-22T14:52:23;41.13;;;31.73;;
19004;SDS011;9635;52.078;8.648;2023-06-22T14:57:27;36.15;;;29.60;;
19004;SDS011;9635;52.078;8.648;2023-06-22T15:02:30;37.95;;;32.50;;
19004;SDS011;9635;52.078;8.648;2023-06-22T15:07:33;39.90;;;33.33;;
19004;SDS011;9635;52.078;8.648;2023-06-22T15:12:38;43.97;;;35.03;;
19004;SDS011;9635;52.078;8.648;2023-06-22T15:17:40;40.58;;;34.17;;
19004;SDS011;9635;52.078;8.648;2023-06-22T15:22:43;41.42;;;32.75;;
19004;SDS011;9635;52.078;8.648;2023-06-22T15:27:48;36.63;;;31.02;;
19004;SDS011;9635;52.078;8.648;2023-06-22T15:32:51;33.38;;;29.70;;
19004;SDS011;9635;52.078;8.648;2023-06-22T15:37:53;31.60;;;28.17;;
19004;SDS011;9635;52.078;8.648;2023-06-22T15:42:58;33.63;;;28.85;;
19004;SDS011;9635;52.078;8.648;2023-06-22T15:48:01;33.30;;;28.45;;
19004;SDS011;9635;52.078;8.648;2023-06-22T15:53:03;31.35;;;27.95;;
19004;SDS011;9635;52.078;8.648;2023-06-22T15:58:08;33.05;;;28.88;;
19004;SDS011;9635;52.078;8.648;2023-06-22T16:03:11;32.17;;;28.67;;
19004;SDS011;9635;52.078;8.648;2023-06-22T16:08:14;31.85;;;28.45;;
19004;SDS011;9635;52.078;8.648;2023-06-22T16:13:19;32.28;;;28.67;;
19004;SDS011;9635;52.078;8.648;2023-06-22T16:18:21;33.20;;;27.30;;
19004;SDS011;9635;52.078;8.648;2023-06-22T16:23:24;32.85;;;28.67;;
19004;SDS011;9635;52.078;8.648;2023-06-22T16:28:29;32.20;;;28.70;;
19004;SDS011;9635;52.078;8.648;2023-06-22T16:33:31;32.80;;;29.25;;
19004;SDS011;9635;52.078;8.648;2023-06-22T16:38:34;34.63;;;28.73;;
19004;SDS011;9635;52.078;8.648;2023-06-22T16:43:41;39.80;;;30.58;;
19004;SDS011;9635;52.078;8.648;2023-06-22T16:48:49;35.92;;;30.25;;
19004;SDS011;9635;52.078;8.648;2023-06-22T16:53:54;32.50;;;29.10;;
19004;SDS011;9635;52.078;8.648;2023-06-22T16:58:59;32.50;;;28.95;;
19004;SDS011;9635;52.078;8.648;2023-06-22T17:04:08;35.55;;;28.35;;
19004;SDS011;9635;52.078;8.648;2023-06-22T17:09:13;42.80;;;35.42;;
19004;SDS011;9635;52.078;8.648;2023-06-22T17:14:18;40.33;;;33.35;;
19004;SDS011;9635;52.078;8.648;2023-06-22T17:19:20;51.35;;;30.48;;
19004;SDS011;9635;52.078;8.648;2023-06-22T17:24:24;150.77;;;46.33;;
19004;SDS011;9635;52.078;8.648;2023-06-22T17:29:29;233.30;;;54.88;;
19004;SDS011;9635;52.078;8.648;2023-06-22T17:34:34;62.42;;;44.78;;
19004;SDS011;9635;52.078;8.648;2023-06-22T17:39:38;66.70;;;46.67;;
19004;SDS011;9635;52.078;8.648;2023-06-22T17:44:44;65.63;;;49.00;;
19004;SDS011;9635;52.078;8.648;2023-06-22T17:49:47;81.47;;;52.50;;
19004;SDS011;9635;52.078;8.648;2023-06-22T17:54:50;81.18;;;56.40;;
19004;SDS011;9635;52.078;8.648;2023-06-22T18:00:13;92.82;;;58.38;;
19004;SDS011;9635;52.078;8.648;2023-06-22T18:05:27;78.70;;;57.10;;
19004;SDS011;9635;52.078;8.648;2023-06-22T18:10:32;95.60;;;59.20;;
19004;SDS011;9635;52.078;8.648;2023-06-22T18:15:37;90.63;;;61.10;;
19004;SDS011;9635;52.078;8.648;2023-06-22T18:20:42;88.88;;;61.40;;
19004;SDS011;9635;52.078;8.648;2023-06-22T18:25:47;82.57;;;59.25;;
19004;SDS011;9635;52.078;8.648;2023-06-22T18:30:52;93.30;;;62.20;;
19004;SDS011;9635;52.078;8.648;2023-06-22T18:35:56;88.53;;;60.58;;
19004;SDS011;9635;52.078;8.648;2023-06-22T18:40:59;88.47;;;63.67;;
19004;SDS011;9635;52.078;8.648;2023-06-22T18:51:47;84.10;;;57.92;;
19004;SDS011;9635;52.078;8.648;2023-06-22T18:56:52;80.13;;;56.10;;
19004;SDS011;9635;52.078;8.648;2023-06-22T19:02:01;72.88;;;56.15;;
19004;SDS011;9635;52.078;8.648;2023-06-22T19:07:04;71.20;;;53.05;;
19004;SDS011;9635;52.078;8.648;2023-06-22T19:12:21;71.25;;;51.25;;
19004;SDS011;9635;52.078;8.648;2023-06-22T19:17:28;60.35;;;46.78;;
19004;SDS011;9635;52.078;8.648;2023-06-22T19:22:44;59.85;;;47.22;;
19004;SDS011;9635;52.078;8.648;2023-06-22T19:27:49;58.88;;;45.90;;
19004;SDS011;9635;52.078;8.648;2023-06-22T19:32:58;55.92;;;44.88;;
19004;SDS011;9635;52.078;8.648;2023-06-22T19:38:01;55.15;;;45.63;;
19004;SDS011;9635;52.078;8.648;2023-06-22T19:43:05;50.90;;;43.90;;
19004;SDS011;9635;52.078;8.648;2023-06-22T19:48:10;49.88;;;41.15;;
19004;SDS011;9635;52.078;8.648;2023-06-22T19:53:14;55.40;;;42.88;;
19004;SDS011;9635;52.078;8.648;2023-06-22T19:58:18;53.45;;;42.50;;
19004;SDS011;9635;52.078;8.648;2023-06-22T20:03:25;51.35;;;41.80;;
19004;SDS011;9635;52.078;8.648;2023-06-22T20:08:29;56.45;;;43.83;;
19004;SDS011;9635;52.078;8.648;2023-06-22T20:13:47;52.50;;;43.45;;
19004;SDS011;9635;52.078;8.648;2023-06-22T20:19:05;55.38;;;43.33;;
19004;SDS011;9635;52.078;8.648;2023-06-22T20:24:13;49.50;;;41.50;;
19004;SDS011;9635;52.078;8.648;2023-06-22T20:29:22;54.65;;;43.08;;
19004;SDS011;9635;52.078;8.648;2023-06-22T20:34:27;51.50;;;41.00;;
19004;SDS011;9635;52.078;8.648;2023-06-22T20:39:35;51.72;;;40.45;;
19004;SDS011;9635;52.078;8.648;2023-06-22T20:44:38;54.33;;;40.75;;
19004;SDS011;9635;52.078;8.648;2023-06-22T20:49:42;49.22;;;41.00;;
19004;SDS011;9635;52.078;8.648;2023-06-22T20:54:45;48.92;;;39.63;;
19004;SDS011;9635;52.078;8.648;2023-06-22T20:59:48;50.03;;;39.60;;
19004;SDS011;9635;52.078;8.648;2023-06-22T21:04:53;52.15;;;40.13;;
19004;SDS011;9635;52.078;8.648;2023-06-22T21:09:56;48.95;;;39.47;;
19004;SDS011;9635;52.078;8.648;2023-06-22T21:14:59;51.60;;;39.45;;
19004;SDS011;9635;52.078;8.648;2023-06-22T21:20:04;47.22;;;39.75;;
19004;SDS011;9635;52.078;8.648;2023-06-22T21:25:08;50.88;;;40.45;;
19004;SDS011;9635;52.078;8.648;2023-06-22T21:30:13;50.00;;;40.13;;
19004;SDS011;9635;52.078;8.648;2023-06-22T21:35:18;50.42;;;40.00;;
19004;SDS011;9635;52.078;8.648;2023-06-22T21:40:20;44.85;;;37.42;;
19004;SDS011;9635;52.078;8.648;2023-06-22T21:45:23;46.13;;;38.50;;
19004;SDS011;9635;52.078;8.648;2023-06-22T21:50:28;50.97;;;39.72;;
19004;SDS011;9635;52.078;8.648;2023-06-22T21:55:31;50.60;;;39.38;;
19004;SDS011;9635;52.078;8.648;2023-06-22T22:00:34;53.47;;;40.47;;
19004;SDS011;9635;52.078;8.648;2023-06-22T22:05:38;49.15;;;38.75;;
19004;SDS011;9635;52.078;8.648;2023-06-22T22:10:41;49.53;;;39.45;;
19004;SDS011;9635;52.078;8.648;2023-06-22T22:15:44;47.33;;;38.97;;
19004;SDS011;9635;52.078;8.648;2023-06-22T22:20:50;48.33;;;38.28;;
19004;SDS011;9635;52.078;8.648;2023-06-22T22:25:53;50.28;;;39.42;;
19004;SDS011;9635;52.078;8.648;2023-06-22T22:30:56;45.22;;;36.83;;
19004;SDS011;9635;52.078;8.648;2023-06-22T22:36:02;49.65;;;38.63;;
19004;SDS011;9635;52.078;8.648;2023-06-22T22:41:06;51.33;;;37.83;;
19004;SDS011;9635;52.078;8.648;2023-06-22T22:46:09;45.50;;;38.45;;
19004;SDS011;9635;52.078;8.648;2023-06-22T22:51:13;47.42;;;39.33;;
19004;SDS011;9635;52.078;8.648;2023-06-22T22:56:16;52.97;;;42.13;;
19004;SDS011;9635;52.078;8.648;2023-06-22T23:01:19;58.58;;;44.70;;
19004;SDS011;9635;52.078;8.648;2023-06-22T23:06:23;64.80;;;48.13;;
19004;SDS011;9635;52.078;8.648;2023-06-22T23:11:26;65.72;;;47.00;;
19004;SDS011;9635;52.078;8.648;2023-06-22T23:16:29;60.55;;;46.80;;
19004;SDS011;9635;52.078;8.648;2023-06-22T23:21:33;62.72;;;43.88;;
19004;SDS011;9635;52.078;8.648;2023-06-22T23:26:36;58.63;;;44.65;;
19004;SDS011;9635;52.078;8.648;2023-06-22T23:31:39;62.95;;;45.95;;
19004;SDS011;9635;52.078;8.648;2023-06-22T23:36:43;60.55;;;43.08;;
19004;SDS011;9635;52.078;8.648;2023-06-22T23:41:46;57.55;;;43.45;;
19004;SDS011;9635;52.078;8.648;2023-06-22T23:46:49;57.17;;;42.05;;
19004;SDS011;9635;52.078;8.648;2023-06-22T23:51:53;56.38;;;41.65;;
19004;SDS011;9635;52.078;8.648;2023-06-22T23:56:56;62.17;;;42.20;;
